Time,TemperatureF,DewpointF,PressureIn,WindDirection,WindDirectionDegrees,WindSpeedMPH,WindSpeedGustMPH,Humidity,HourlyPrecipIn,Conditions,Clouds,dailyrainin,SolarRadiationWatts/m^2,SoftwareType,DateUTC
2013-09-04 00:00:00,77.9,72.7,29.83,West,277,3.0,15.0,84,0.11,,CLR,0.75,0.00,VWS V14.01,2013-09-04 04:00:00,
2013-09-04 00:01:00,77.4,73.2,29.84,NW,322,6.0,6.0,87,0.02,,OVC100,0.01,0.00,VWS V14.01,2013-09-04 04:01:00,
2013-09-04 00:06:00,77.2,71.6,29.84,NW,311,4.0,7.0,83,0.01,,OVC100,0.01,0.00,VWS V14.01,2013-09-04 04:06:00,
2013-09-04 00:11:00,77.0,71.8,29.84,NW,310,4.0,7.0,84,0.01,,OVC100,0.01,0.00,VWS V14.01,2013-09-04 04:11:00,
2013-09-04 00:16:00,77.0,71.4,29.84,NW,318,3.0,7.0,83,0.01,,OVC100,0.01,0.00,VWS V14.01,2013-09-04 04:16:00,
2013-09-04 00:21:00,77.0,71.8,29.84,NW,321,4.0,7.0,84,0.01,,OVC100,0.01,0.00,VWS V14.01,2013-09-04 04:21:00,
2013-09-04 00:26:00,77.2,72.3,29.84,NW,320,0.0,7.0,85,0.01,,OVC100,0.01,0.00,VWS V14.01,2013-09-04 04:26:00,
2013-09-04 00:30:00,78.3,74.1,29.83,ENE,70,2.0,6.0,87,0.12,,CLR,0.01,0.00,VWS V14.01,2013-09-04 04:30:00,
2013-09-04 00:31:00,77.2,72.3,29.84,NNW,328,0.0,3.0,85,0.00,,OVC100,0.01,0.00,VWS V14.01,2013-09-04 04:31:00,
2013-09-04 00:36:00,77.0,72.8,29.84,NW,325,0.0,5.0,87,0.00,,OVC100,0.01,0.00,VWS V14.01,2013-09-04 04:36:00,
2013-09-04 00:41:00,76.1,72.3,29.84,West,268,1.0,5.0,88,0.00,,OVC100,0.01,0.00,VWS V14.01,2013-09-04 04:41:00,
2013-09-04 00:46:00,75.6,72.5,29.85,West,267,0.0,5.0,90,0.00,,OVC100,0.01,0.00,VWS V14.01,2013-09-04 04:46:00,
2013-09-04 00:51:00,75.6,72.5,29.85,West,268,0.0,5.0,90,0.00,,OVC100,0.01,0.00,VWS V14.01,2013-09-04 04:51:00,
2013-09-04 00:56:00,75.8,72.0,29.85,NW,310,1.0,5.0,88,0.00,,OVC100,0.01,0.00,VWS V14.01,2013-09-04 04:56:00,
2013-09-04 01:00:00,77.4,73.2,29.84,NW,321,6.0,6.0,87,0.02,,CLR,0.01,0.00,VWS V14.01,2013-09-04 05:00:00,
2013-09-04 01:01:00,76.0,72.2,29.84,NW,311,3.0,3.0,88,0.00,,SCT090,0.01,0.00,VWS V14.01,2013-09-04 05:01:00,
2013-09-04 01:06:00,76.0,72.5,29.84,NW,321,3.0,4.0,89,0.00,,SCT090,0.01,0.00,VWS V14.01,2013-09-04 05:06:00,
2013-09-04 01:11:00,76.0,72.2,29.84,NW,313,3.0,4.0,88,0.00,,SCT090,0.01,0.00,VWS V14.01,2013-09-04 05:11:00,
2013-09-04 01:16:00,76.0,71.9,29.83,NW,313,0.0,4.0,87,0.00,,SCT090,0.01,0.00,VWS V14.01,2013-09-04 05:16:00,
2013-09-04 01:21:00,75.8,72.0,29.83,NW,311,5.0,5.0,88,0.00,,SCT090,0.01,0.00,VWS V14.01,2013-09-04 05:21:00,
2013-09-04 01:26:00,75.6,72.1,29.83,NW,309,1.0,5.0,89,0.00,,SCT090,0.01,0.00,VWS V14.01,2013-09-04 05:26:00,
2013-09-04 01:30:00,77.2,72.3,29.84,NNW,327,3.0,7.0,85,0.01,,CLR,0.01,0.00,VWS V14.01,2013-09-04 05:30:00,
2013-09-04 01:31:00,75.6,71.8,29.83,NW,317,2.0,4.0,88,0.00,,SCT090,0.01,0.00,VWS V14.01,2013-09-04 05:31:00,
2013-09-04 01:36:00,75.6,71.5,29.83,NW,310,3.0,5.0,87,0.00,,SCT090,0.01,0.00,VWS V14.01,2013-09-04 05:36:00,
2013-09-04 01:41:00,75.4,71.3,29.83,NW,309,0.0,5.0,87,0.00,,SCT090,0.01,0.00,VWS V14.01,2013-09-04 05:41:00,
2013-09-04 01:46:00,75.4,71.3,29.83,WNW,302,4.0,6.0,87,0.00,,SCT090,0.01,0.00,VWS V14.01,2013-09-04 05:46:00,
2013-09-04 01:51:00,75.3,70.8,29.83,NW,315,4.0,6.0,86,0.00,,SCT090,0.01,0.00,VWS V14.01,2013-09-04 05:51:00,
2013-09-04 01:56:00,75.1,71.0,29.83,WNW,300,3.0,6.0,87,0.00,,SCT090,0.01,0.00,VWS V14.01,2013-09-04 05:56:00,
2013-09-04 02:00:00,76.0,71.9,29.84,NW,311,2.0,5.0,87,0.00,,CLR,0.01,0.00,VWS V14.01,2013-09-04 06:00:00,
2013-09-04 02:01:00,75.1,70.6,29.83,WNW,297,2.0,3.0,86,0.00,,CLR,0.01,0.00,VWS V14.01,2013-09-04 06:01:00,
2013-09-04 02:06:00,75.1,71.0,29.83,WNW,299,1.0,5.0,87,0.00,,CLR,0.01,0.00,VWS V14.01,2013-09-04 06:06:00,
2013-09-04 02:11:00,74.9,70.8,29.83,WNW,300,4.0,5.0,87,0.00,,CLR,0.01,0.00,VWS V14.01,2013-09-04 06:11:00,
2013-09-04 02:16:00,74.7,70.6,29.83,WNW,290,3.0,6.0,87,0.00,,CLR,0.01,0.00,VWS V14.01,2013-09-04 06:16:00,
2013-09-04 02:21:00,74.6,70.5,29.83,NW,313,4.0,6.0,87,0.00,,CLR,0.01,0.00,VWS V14.01,2013-09-04 06:21:00,
2013-09-04 02:26:00,74.4,69.6,29.83,NW,317,3.0,7.0,85,0.00,,CLR,0.01,0.00,VWS V14.01,2013-09-04 06:26:00,
2013-09-04 02:30:00,75.6,72.1,29.83,NW,317,4.0,5.0,89,0.00,,CLR,0.01,0.00,VWS V14.01,2013-09-04 06:30:00,
2013-09-04 02:31:00,74.4,69.6,29.83,NW,309,3.0,3.0,85,0.00,,CLR,0.01,0.00,VWS V14.01,2013-09-04 06:31:00,
2013-09-04 02:36:00,74.2,69.4,29.83,NW,309,2.0,5.0,85,0.00,,CLR,0.01,0.00,VWS V14.01,2013-09-04 06:36:00,
2013-09-04 02:41:00,74.2,69.1,29.83,NNW,331,3.0,6.0,84,0.00,,CLR,0.01,0.00,VWS V14.01,2013-09-04 06:41:00,
2013-09-04 02:46:00,74.0,68.9,29.83,NW,306,3.0,6.0,84,0.00,,CLR,0.01,0.00,VWS V14.01,2013-09-04 06:46:00,
2013-09-04 02:51:00,74.0,69.9,29.83,WNW,283,0.0,6.0,87,0.00,,CLR,0.01,0.00,VWS V14.01,2013-09-04 06:51:00,
2013-09-04 02:56:00,73.9,69.8,29.83,WNW,301,5.0,6.0,87,0.00,,CLR,0.01,0.00,VWS V14.01,2013-09-04 06:56:00,
2013-09-04 03:00:00,75.1,70.6,29.83,WNW,298,3.0,6.0,86,0.00,,CLR,0.01,0.00,VWS V14.01,2013-09-04 07:00:00,
2013-09-04 03:01:00,73.9,69.1,29.83,WNW,300,4.0,5.0,85,0.00,,CLR,0.01,0.00,VWS V14.01,2013-09-04 07:01:00,
2013-09-04 03:06:00,73.9,69.4,29.83,WNW,287,4.0,6.0,86,0.00,,CLR,0.01,0.00,VWS V14.01,2013-09-04 07:06:00,
2013-09-04 03:11:00,73.9,69.4,29.83,WNW,295,5.0,7.0,86,0.00,,CLR,0.01,0.00,VWS V14.01,2013-09-04 07:11:00,
2013-09-04 03:16:00,73.7,68.9,29.83,NW,314,6.0,8.0,85,0.00,,CLR,0.01,0.00,VWS V14.01,2013-09-04 07:16:00,
2013-09-04 03:21:00,73.5,68.7,29.83,NW,306,5.0,8.0,85,0.00,,CLR,0.01,0.00,VWS V14.01,2013-09-04 07:21:00,
2013-09-04 03:26:00,73.5,69.1,29.83,NW,316,3.0,8.0,86,0.00,,CLR,0.01,0.00,VWS V14.01,2013-09-04 07:26:00,
2013-09-04 03:30:00,74.4,69.6,29.83,NW,313,1.0,7.0,85,0.00,,CLR,0.01,0.00,VWS V14.01,2013-09-04 07:30:00,
2013-09-04 03:31:00,73.5,68.7,29.83,NW,306,5.0,6.0,85,0.00,,CLR,0.01,0.00,VWS V14.01,2013-09-04 07:31:00,
2013-09-04 03:36:00,73.3,69.2,29.83,NW,311,4.0,6.0,87,0.00,,CLR,0.01,0.00,VWS V14.01,2013-09-04 07:36:00,
2013-09-04 03:41:00,73.3,68.9,29.83,NW,306,4.0,6.0,86,0.00,,CLR,0.01,0.00,VWS V14.01,2013-09-04 07:41:00,
2013-09-04 03:46:00,73.3,68.9,29.83,NW,313,3.0,6.0,86,0.00,,CLR,0.01,0.00,VWS V14.01,2013-09-04 07:46:00,
2013-09-04 03:51:00,73.3,68.9,29.83,WNW,302,2.0,6.0,86,0.00,,CLR,0.01,0.00,VWS V14.01,2013-09-04 07:51:00,
2013-09-04 03:56:00,73.5,68.7,29.83,WNW,294,0.0,6.0,85,0.00,,CLR,0.01,0.00,VWS V14.01,2013-09-04 07:56:00,
2013-09-04 04:00:00,73.9,69.1,29.83,NW,309,4.0,7.0,85,0.00,,CLR,0.01,0.00,VWS V14.01,2013-09-04 08:00:00,
2013-09-04 04:01:00,73.3,69.2,29.83,WNW,288,0.0,0.0,87,0.00,,CLR,0.01,0.00,VWS V14.01,2013-09-04 08:01:00,
2013-09-04 04:06:00,72.8,68.4,29.83,WSW,251,2.0,4.0,86,0.00,,CLR,0.01,0.00,VWS V14.01,2013-09-04 08:06:00,
2013-09-04 04:11:00,72.8,68.4,29.83,WNW,286,0.0,6.0,86,0.00,,CLR,0.01,0.00,VWS V14.01,2013-09-04 08:11:00,
2013-09-04 04:16:00,73.0,67.9,29.83,NNW,343,2.0,6.0,84,0.00,,CLR,0.01,0.00,VWS V14.01,2013-09-04 08:16:00,
2013-09-04 04:21:00,73.2,68.1,29.83,NNW,336,2.0,6.0,84,0.00,,CLR,0.01,0.00,VWS V14.01,2013-09-04 08:21:00,
2013-09-04 04:26:00,73.3,68.9,29.83,NNW,339,0.0,6.0,86,0.00,,CLR,0.01,0.00,VWS V14.01,2013-09-04 08:26:00,
2013-09-04 04:30:00,73.3,68.5,29.83,NW,312,3.0,8.0,85,0.00,,CLR,0.01,0.00,VWS V14.01,2013-09-04 08:30:00,
2013-09-04 04:31:00,73.0,68.9,29.83,NE,34,0.0,0.0,87,0.00,,CLR,0.01,0.00,VWS V14.01,2013-09-04 08:31:00,
2013-09-04 04:36:00,72.7,68.6,29.83,ENE,62,0.0,0.0,87,0.00,,CLR,0.01,0.00,VWS V14.01,2013-09-04 08:36:00,
2013-09-04 04:41:00,72.5,68.8,29.83,ENE,69,0.0,0.0,88,0.00,,CLR,0.01,0.00,VWS V14.01,2013-09-04 08:41:00,
2013-09-04 04:46:00,72.1,68.7,29.84,ENE,69,0.0,1.0,89,0.00,,CLR,0.01,0.00,VWS V14.01,2013-09-04 08:46:00,
2013-09-04 04:51:00,72.0,68.9,29.84,ENE,69,2.0,3.0,90,0.00,,CLR,0.01,0.00,VWS V14.01,2013-09-04 08:51:00,
2013-09-04 04:56:00,71.8,69.0,29.84,ENE,69,0.0,3.0,91,0.00,,CLR,0.01,0.00,VWS V14.01,2013-09-04 08:56:00,
2013-09-04 05:00:00,73.3,69.2,29.83,WNW,288,0.0,6.0,87,0.00,,CLR,0.01,0.00,VWS V14.01,2013-09-04 09:00:00,
2013-09-04 05:01:00,71.8,69.3,29.85,ENE,69,0.0,0.0,92,0.00,,CLR,0.01,0.00,VWS V14.01,2013-09-04 09:01:00,
2013-09-04 05:06:00,71.8,69.7,29.85,ENE,69,0.0,0.0,93,0.00,,CLR,0.01,0.00,VWS V14.01,2013-09-04 09:06:00,
2013-09-04 05:11:00,71.8,69.7,29.85,ENE,69,0.0,0.0,93,0.00,,CLR,0.01,0.00,VWS V14.01,2013-09-04 09:11:00,
2013-09-04 05:16:00,71.8,69.7,29.85,ENE,69,0.0,3.0,93,0.00,,CLR,0.01,0.00,VWS V14.01,2013-09-04 09:16:00,
2013-09-04 05:21:00,71.6,69.5,29.85,ENE,69,0.0,3.0,93,0.00,,CLR,0.01,0.00,VWS V14.01,2013-09-04 09:21:00,
2013-09-04 05:26:00,71.8,70.0,29.85,ENE,69,0.0,3.0,94,0.00,,CLR,0.01,0.00,VWS V14.01,2013-09-04 09:26:00,
2013-09-04 05:30:00,73.0,68.9,29.83,NNE,33,0.0,6.0,87,0.00,,CLR,0.01,0.00,VWS V14.01,2013-09-04 09:30:00,
2013-09-04 05:31:00,72.0,70.5,29.85,NW,314,3.0,4.0,95,0.00,,CLR,0.01,0.00,VWS V14.01,2013-09-04 09:31:00,
2013-09-04 05:36:00,72.1,70.0,29.85,WNW,301,0.0,5.0,93,0.00,,CLR,0.01,0.00,VWS V14.01,2013-09-04 09:36:00,
2013-09-04 05:41:00,72.3,70.2,29.85,WNW,300,0.0,5.0,93,0.00,,CLR,0.01,0.00,VWS V14.01,2013-09-04 09:41:00,
2013-09-04 05:46:00,72.3,69.5,29.85,WNW,300,0.0,5.0,91,0.00,,CLR,0.01,0.00,VWS V14.01,2013-09-04 09:46:00,
2013-09-04 05:51:00,72.3,69.2,29.85,WNW,300,2.0,5.0,90,0.00,,CLR,0.01,0.00,VWS V14.01,2013-09-04 09:51:00,
2013-09-04 05:56:00,72.5,68.8,29.85,WNW,300,0.0,5.0,88,0.00,,CLR,0.01,0.00,VWS V14.01,2013-09-04 09:56:00,
2013-09-04 06:00:00,71.8,69.4,29.85,ENE,69,0.0,3.0,92,0.00,,CLR,0.01,0.00,VWS V14.01,2013-09-04 10:00:00,
2013-09-04 06:01:00,72.5,68.8,29.86,WNW,300,2.0,5.0,88,0.00,,CLR,0.01,0.00,VWS V14.01,2013-09-04 10:01:00,
2013-09-04 06:06:00,72.3,68.6,29.86,WNW,300,0.0,1.0,88,0.00,,CLR,0.01,0.00,VWS V14.01,2013-09-04 10:06:00,
2013-09-04 06:11:00,71.8,68.4,29.86,WNW,300,0.0,1.0,89,0.00,,CLR,0.01,0.00,VWS V14.01,2013-09-04 10:11:00,
2013-09-04 06:16:00,71.6,68.2,29.87,WNW,300,0.0,3.0,89,0.00,,CLR,0.01,0.00,VWS V14.01,2013-09-04 10:16:00,
2013-09-04 06:21:00,71.5,68.4,29.87,WNW,300,2.0,3.0,90,0.00,,CLR,0.01,0.00,VWS V14.01,2013-09-04 10:21:00,
2013-09-04 06:26:00,71.6,68.8,29.87,WSW,254,2.0,4.0,91,0.00,,CLR,0.01,0.00,VWS V14.01,2013-09-04 10:26:00,
2013-09-04 06:30:00,72.0,70.5,29.85,NW,314,4.0,5.0,95,0.00,,CLR,0.01,0.00,VWS V14.01,2013-09-04 10:30:00,
2013-09-04 06:31:00,71.8,68.7,29.87,WSW,254,0.0,4.0,90,0.00,,CLR,0.01,0.00,VWS V14.01,2013-09-04 10:31:00,
2013-09-04 06:36:00,71.8,69.0,29.87,WSW,254,2.0,4.0,91,0.00,,CLR,0.01,0.00,VWS V14.01,2013-09-04 10:36:00,
2013-09-04 06:41:00,71.8,68.4,29.87,WNW,284,2.0,5.0,89,0.00,,CLR,0.01,0.00,VWS V14.01,2013-09-04 10:41:00,
2013-09-04 06:46:00,71.8,68.4,29.88,WNW,292,2.0,5.0,89,0.00,,CLR,0.01,0.00,VWS V14.01,2013-09-04 10:46:00,
2013-09-04 06:50:00,72.0,68.6,29.88,WNW,292,3.0,5.0,89,0.00,,CLR,0.01,0.00,VWS V14.01,2013-09-04 10:50:00,
2013-09-04 06:55:00,72.1,69.0,29.88,WNW,292,2.0,5.0,90,0.00,,CLR,0.01,0.00,VWS V14.01,2013-09-04 10:55:00,
2013-09-04 07:00:00,72.0,69.2,29.88,WNW,292,1.0,5.0,91,0.00,,CLR,0.01,0.00,VWS V14.01,2013-09-04 11:00:00,
2013-09-04 07:05:00,72.0,69.2,29.88,WNW,292,2.0,4.0,91,0.00,,CLR,0.01,0.00,VWS V14.01,2013-09-04 11:05:00,
2013-09-04 07:10:00,71.8,68.7,29.88,WNW,292,2.0,4.0,90,0.00,,CLR,0.01,5.00,VWS V14.01,2013-09-04 11:10:00,
2013-09-04 07:15:00,71.8,68.7,29.89,WNW,292,3.0,4.0,90,0.00,,CLR,0.01,9.00,VWS V14.01,2013-09-04 11:15:00,
2013-09-04 07:20:00,71.8,68.7,29.89,WNW,292,0.0,4.0,90,0.00,,CLR,0.01,14.00,VWS V14.01,2013-09-04 11:20:00,
2013-09-04 07:25:00,72.0,69.2,29.89,WNW,292,1.0,4.0,91,0.00,,CLR,0.01,21.00,VWS V14.01,2013-09-04 11:25:00,
2013-09-04 07:30:00,72.0,69.2,29.90,WNW,300,2.0,5.0,91,0.00,,CLR,0.01,26.00,VWS V14.01,2013-09-04 11:30:00,
2013-09-04 07:35:00,71.8,69.0,29.90,NW,321,0.0,5.0,91,0.00,,CLR,0.01,42.00,VWS V14.01,2013-09-04 11:35:00,
2013-09-04 07:40:00,72.0,69.2,29.90,NW,319,0.0,5.0,91,0.00,,CLR,0.01,33.00,VWS V14.01,2013-09-04 11:40:00,
2013-09-04 07:45:00,71.8,68.4,29.91,NW,319,3.0,5.0,89,0.00,,CLR,0.01,39.00,VWS V14.01,2013-09-04 11:45:00,
2013-09-04 07:50:00,71.8,68.4,29.91,WNW,287,0.0,5.0,89,0.00,,CLR,0.01,49.00,VWS V14.01,2013-09-04 11:50:00,
2013-09-04 07:55:00,71.8,68.7,29.91,WNW,287,2.0,5.0,90,0.00,,CLR,0.01,54.00,VWS V14.01,2013-09-04 11:55:00,
2013-09-04 08:00:00,71.8,68.1,29.92,WNW,287,4.0,5.0,88,0.00,,BKN041,0.01,77.00,VWS V14.01,2013-09-04 12:00:00,
2013-09-04 08:05:00,71.8,67.4,29.92,WNW,287,5.0,5.0,86,0.00,,BKN041,0.01,77.00,VWS V14.01,2013-09-04 12:05:00,
2013-09-04 08:10:00,72.1,67.0,29.92,WNW,287,3.0,5.0,84,0.00,,BKN041,0.01,102.00,VWS V14.01,2013-09-04 12:10:00,
2013-09-04 08:15:00,72.5,68.4,29.92,NNW,344,0.0,5.0,87,0.00,,BKN041,0.01,120.00,VWS V14.01,2013-09-04 12:15:00,
2013-09-04 08:20:00,72.8,67.7,29.92,WNW,303,1.0,5.0,84,0.00,,BKN041,0.01,165.00,VWS V14.01,2013-09-04 12:20:00,
2013-09-04 08:25:00,72.8,67.3,29.92,NW,311,2.0,5.0,83,0.00,,BKN041,0.01,162.00,VWS V14.01,2013-09-04 12:25:00,
2013-09-04 08:30:00,72.8,65.9,29.92,NW,318,2.0,5.0,79,0.00,,BKN041,0.01,134.00,VWS V14.01,2013-09-04 12:30:00,
2013-09-04 08:35:00,73.2,66.7,29.92,NW,321,0.0,4.0,80,0.00,,BKN041,0.01,262.00,VWS V14.01,2013-09-04 12:35:00,
2013-09-04 08:40:00,73.7,66.8,29.92,NW,321,0.0,4.0,79,0.00,,BKN041,0.01,229.00,VWS V14.01,2013-09-04 12:40:00,
2013-09-04 08:45:00,74.0,67.4,29.93,NNE,12,0.0,4.0,80,0.00,,BKN041,0.01,93.00,VWS V14.01,2013-09-04 12:45:00,
2013-09-04 08:50:00,74.0,67.4,29.93,North,350,2.0,4.0,80,0.00,,BKN041,0.01,95.00,VWS V14.01,2013-09-04 12:50:00,
2013-09-04 08:55:00,73.9,68.1,29.93,NNW,327,1.0,4.0,82,0.00,,BKN041,0.01,105.00,VWS V14.01,2013-09-04 12:55:00,
2013-09-04 09:00:00,73.7,67.9,29.93,NW,313,3.0,6.0,82,0.00,,CLR,0.01,294.00,VWS V14.01,2013-09-04 13:00:00,
2013-09-04 09:05:00,73.3,67.5,29.93,NW,325,0.0,5.0,82,0.00,,CLR,0.01,271.00,VWS V14.01,2013-09-04 13:05:00,
2013-09-04 09:10:00,73.3,67.5,29.93,NW,323,2.0,5.0,82,0.00,,CLR,0.01,339.00,VWS V14.01,2013-09-04 13:10:00,
2013-09-04 09:15:00,73.5,67.7,29.94,NW,323,1.0,5.0,82,0.00,,CLR,0.01,353.00,VWS V14.01,2013-09-04 13:15:00,
2013-09-04 09:20:00,73.9,68.1,29.94,NW,323,0.0,5.0,82,0.00,,CLR,0.01,378.00,VWS V14.01,2013-09-04 13:20:00,
2013-09-04 09:25:00,74.2,67.6,29.94,North,350,2.0,5.0,80,0.00,,CLR,0.01,381.00,VWS V14.01,2013-09-04 13:25:00,
2013-09-04 09:30:00,74.6,68.4,29.94,NNE,25,3.0,5.0,81,0.00,,CLR,0.01,403.00,VWS V14.01,2013-09-04 13:30:00,
2013-09-04 09:35:00,75.1,68.9,29.94,NNE,13,4.0,4.0,81,0.00,,CLR,0.01,418.00,VWS V14.01,2013-09-04 13:35:00,
2013-09-04 09:40:00,75.8,69.2,29.94,NE,52,1.0,4.0,80,0.00,,CLR,0.01,429.00,VWS V14.01,2013-09-04 13:40:00,
2013-09-04 09:45:00,76.1,68.0,29.95,ENE,74,0.0,4.0,76,0.00,,CLR,0.01,441.00,VWS V14.01,2013-09-04 13:45:00,
2013-09-04 09:50:00,76.5,66.8,29.95,North,360,0.0,4.0,72,0.00,,CLR,0.01,471.00,VWS V14.01,2013-09-04 13:50:00,
2013-09-04 09:55:00,76.5,66.8,29.95,ESE,119,0.0,4.0,72,0.00,,CLR,0.01,504.00,VWS V14.01,2013-09-04 13:55:00,
2013-09-04 10:00:00,76.7,67.0,29.95,ESE,117,0.0,4.0,72,0.00,,CLR,0.01,503.00,VWS V14.01,2013-09-04 14:00:00,
2013-09-04 10:05:00,76.8,67.1,29.95,ESE,116,0.0,1.0,72,0.00,,CLR,0.01,522.00,VWS V14.01,2013-09-04 14:05:00,
2013-09-04 10:10:00,77.4,67.7,29.95,ESE,115,0.0,1.0,72,0.00,,CLR,0.01,526.00,VWS V14.01,2013-09-04 14:10:00,
2013-09-04 10:15:00,78.1,67.9,29.95,ESE,117,0.0,1.0,71,0.00,,CLR,0.01,548.00,VWS V14.01,2013-09-04 14:15:00,
2013-09-04 10:20:00,78.6,68.4,29.95,ESE,115,0.0,2.0,71,0.00,,CLR,0.01,555.00,VWS V14.01,2013-09-04 14:20:00,
2013-09-04 10:25:00,78.3,67.3,29.95,ESE,105,0.0,4.0,69,0.00,,CLR,0.01,575.00,VWS V14.01,2013-09-04 14:25:00,
2013-09-04 10:30:00,77.9,67.8,29.95,ESE,123,0.0,4.0,71,0.00,,CLR,0.01,585.00,VWS V14.01,2013-09-04 14:30:00,
2013-09-04 10:35:00,78.5,67.1,29.95,SE,126,0.0,1.0,68,0.00,,CLR,0.01,592.00,VWS V14.01,2013-09-04 14:35:00,
2013-09-04 10:40:00,79.2,67.7,29.95,SE,138,0.0,1.0,68,0.00,,CLR,0.01,601.00,VWS V14.01,2013-09-04 14:40:00,
2013-09-04 10:45:00,78.8,67.4,29.95,East,98,3.0,4.0,68,0.00,,CLR,0.01,640.00,VWS V14.01,2013-09-04 14:45:00,
2013-09-04 10:50:00,78.1,66.7,29.95,ESE,105,0.0,4.0,68,0.00,,CLR,0.01,645.00,VWS V14.01,2013-09-04 14:50:00,
2013-09-04 10:55:00,78.3,66.4,29.95,ESE,105,0.0,4.0,67,0.00,,CLR,0.01,636.00,VWS V14.01,2013-09-04 14:55:00,
2013-09-04 11:00:00,78.5,67.9,29.95,ESE,103,0.0,4.0,70,0.00,,SCT044,0.01,650.00,VWS V14.01,2013-09-04 15:00:00,
2013-09-04 11:05:00,78.6,67.6,29.95,ESE,103,0.0,1.0,69,0.00,,SCT044,0.01,515.00,VWS V14.01,2013-09-04 15:05:00,
2013-09-04 11:10:00,79.4,67.9,29.95,ESE,107,0.0,1.0,68,0.00,,SCT044,0.01,622.00,VWS V14.01,2013-09-04 15:10:00,
2013-09-04 11:15:00,80.1,67.7,29.95,ESE,107,0.0,1.0,66,0.00,,SCT044,0.01,689.00,VWS V14.01,2013-09-04 15:15:00,
2013-09-04 11:20:00,80.5,67.7,29.95,ESE,112,0.0,1.0,65,0.00,,SCT044,0.01,761.00,VWS V14.01,2013-09-04 15:20:00,
2013-09-04 11:25:00,80.3,67.9,29.95,ESE,113,2.0,3.0,66,0.00,,SCT044,0.01,777.00,VWS V14.01,2013-09-04 15:25:00,
2013-09-04 11:30:00,79.8,68.3,29.95,ENE,71,0.0,9.0,68,0.00,,SCT044,0.01,536.00,VWS V14.01,2013-09-04 15:30:00,
2013-09-04 11:35:00,79.2,65.5,29.95,ESE,105,5.0,6.0,63,0.00,,SCT044,0.01,735.00,VWS V14.01,2013-09-04 15:35:00,
2013-09-04 11:40:00,79.2,65.1,29.95,East,101,2.0,9.0,62,0.00,,SCT044,0.01,381.00,VWS V14.01,2013-09-04 15:40:00,
2013-09-04 11:45:00,79.2,65.1,29.95,East,90,3.0,9.0,62,0.00,,SCT044,0.01,925.00,VWS V14.01,2013-09-04 15:45:00,
2013-09-04 11:50:00,79.4,65.3,29.95,ESE,105,5.0,9.0,62,0.00,,SCT044,0.01,756.00,VWS V14.01,2013-09-04 15:50:00,
2013-09-04 11:55:00,79.4,66.2,29.95,East,84,6.0,9.0,64,0.00,,SCT044,0.01,807.00,VWS V14.01,2013-09-04 15:55:00,
2013-09-04 12:00:00,79.4,66.2,29.95,ENE,65,4.0,9.0,64,0.00,,SCT044,0.01,793.00,VWS V14.01,2013-09-04 16:00:00,
2013-09-04 12:05:00,79.4,66.2,29.95,NE,53,3.0,5.0,64,0.00,,CLR,0.01,870.00,VWS V14.01,2013-09-04 16:05:00,
2013-09-04 12:10:00,79.8,66.1,29.95,East,101,3.0,6.0,63,0.00,,CLR,0.01,708.00,VWS V14.01,2013-09-04 16:10:00,
2013-09-04 12:15:00,79.8,66.1,29.95,ENE,71,6.0,6.0,63,0.00,,CLR,0.01,812.00,VWS V14.01,2013-09-04 16:15:00,
2013-09-04 12:20:00,79.9,65.7,29.95,East,82,0.0,6.0,62,0.00,,CLR,0.01,812.00,VWS V14.01,2013-09-04 16:20:00,
2013-09-04 12:25:00,80.3,66.6,29.95,East,84,0.0,6.0,63,0.00,,CLR,0.01,582.00,VWS V14.01,2013-09-04 16:25:00,
2013-09-04 12:30:00,81.1,65.4,29.95,ENE,61,4.0,6.0,59,0.00,,CLR,0.01,824.00,VWS V14.01,2013-09-04 16:30:00,
2013-09-04 12:35:00,81.1,64.9,29.95,East,83,0.0,8.0,58,0.00,,CLR,0.01,900.00,VWS V14.01,2013-09-04 16:35:00,
2013-09-04 12:40:00,81.1,65.4,29.95,East,83,1.0,8.0,59,0.00,,CLR,0.01,923.00,VWS V14.01,2013-09-04 16:40:00,
2013-09-04 12:45:00,81.4,66.2,29.95,NE,54,0.0,8.0,60,0.00,,CLR,0.01,895.00,VWS V14.01,2013-09-04 16:45:00,
2013-09-04 12:50:00,81.4,66.7,29.95,ENE,78,0.0,8.0,61,0.00,,CLR,0.01,888.00,VWS V14.01,2013-09-04 16:50:00,
2013-09-04 12:55:00,81.4,65.7,29.95,East,80,0.0,8.0,59,0.00,,CLR,0.01,889.00,VWS V14.01,2013-09-04 16:55:00,
2013-09-04 13:00:00,81.6,65.4,29.95,East,90,0.0,8.0,58,0.00,,CLR,0.01,916.00,VWS V14.01,2013-09-04 17:00:00,
2013-09-04 13:05:00,82.0,66.8,29.95,NNE,32,1.0,5.0,60,0.00,,CLR,0.01,877.00,VWS V14.01,2013-09-04 17:05:00,
2013-09-04 13:10:00,82.0,65.8,29.95,ENE,67,0.0,5.0,58,0.00,,CLR,0.01,947.00,VWS V14.01,2013-09-04 17:10:00,
2013-09-04 13:15:00,82.2,65.5,29.95,East,80,0.0,5.0,57,0.00,,CLR,0.01,229.00,VWS V14.01,2013-09-04 17:15:00,
2013-09-04 13:20:00,82.4,66.2,29.95,ESE,104,0.0,5.0,58,0.00,,CLR,0.01,937.00,VWS V14.01,2013-09-04 17:20:00,
2013-09-04 13:25:00,82.4,66.2,29.95,ESE,108,2.0,5.0,58,0.00,,CLR,0.01,905.00,VWS V14.01,2013-09-04 17:25:00,
2013-09-04 13:30:00,82.4,66.7,29.94,NW,305,0.0,5.0,59,0.00,,CLR,0.01,933.00,VWS V14.01,2013-09-04 17:30:00,
2013-09-04 13:35:00,82.2,66.5,29.94,NW,314,0.0,1.0,59,0.00,,CLR,0.01,953.00,VWS V14.01,2013-09-04 17:35:00,
2013-09-04 13:40:00,82.6,65.8,29.94,ENE,71,1.0,3.0,57,0.00,,CLR,0.01,923.00,VWS V14.01,2013-09-04 17:40:00,
2013-09-04 13:45:00,82.6,66.8,29.93,East,95,4.0,5.0,59,0.00,,CLR,0.01,949.00,VWS V14.01,2013-09-04 17:45:00,
2013-09-04 13:50:00,83.0,65.7,29.93,ESE,120,0.0,5.0,56,0.00,,CLR,0.01,884.00,VWS V14.01,2013-09-04 17:50:00,
2013-09-04 13:55:00,83.8,65.4,29.93,SE,135,0.0,5.0,54,0.00,,CLR,0.01,928.00,VWS V14.01,2013-09-04 17:55:00,
2013-09-04 14:00:00,84.5,67.1,29.93,ESE,113,6.0,6.0,56,0.00,,CLR,0.01,1035.00,VWS V14.01,2013-09-04 18:00:00,
2013-09-04 14:05:00,83.8,66.4,29.93,ESE,112,0.0,4.0,56,0.00,,CLR,0.01,1025.00,VWS V14.01,2013-09-04 18:05:00,
2013-09-04 14:10:00,83.6,65.2,29.93,ESE,112,0.0,4.0,54,0.00,,CLR,0.01,1051.00,VWS V14.01,2013-09-04 18:10:00,
2013-09-04 14:15:00,84.3,65.3,29.93,ESE,115,0.0,4.0,53,0.00,,CLR,0.01,925.00,VWS V14.01,2013-09-04 18:15:00,
2013-09-04 14:20:00,85.1,66.1,29.93,SE,132,1.0,4.0,53,0.00,,CLR,0.01,981.00,VWS V14.01,2013-09-04 18:20:00,
2013-09-04 14:25:00,85.1,65.5,29.93,SE,131,2.0,4.0,52,0.00,,CLR,0.01,1007.00,VWS V14.01,2013-09-04 18:25:00,
2013-09-04 14:30:00,84.1,66.2,29.93,ESE,122,4.0,4.0,55,0.00,,CLR,0.01,972.00,VWS V14.01,2013-09-04 18:30:00,
2013-09-04 14:35:00,83.4,65.6,29.93,ESE,121,0.0,5.0,55,0.00,,CLR,0.01,554.00,VWS V14.01,2013-09-04 18:35:00,
2013-09-04 14:40:00,83.8,66.4,29.93,ESE,121,0.0,5.0,56,0.00,,CLR,0.01,636.00,VWS V14.01,2013-09-04 18:40:00,
2013-09-04 14:45:00,84.3,66.4,29.93,SE,128,0.0,5.0,55,0.00,,CLR,0.01,698.00,VWS V14.01,2013-09-04 18:45:00,
2013-09-04 14:50:00,84.7,65.7,29.93,SE,146,0.0,5.0,53,0.00,,CLR,0.01,991.00,VWS V14.01,2013-09-04 18:50:00,
2013-09-04 14:55:00,84.3,65.9,29.93,SE,131,0.0,5.0,54,0.00,,CLR,0.01,844.00,VWS V14.01,2013-09-04 18:55:00,
2013-09-04 15:00:00,84.1,66.2,29.92,ESE,108,0.0,5.0,55,0.00,,CLR,0.01,555.00,VWS V14.01,2013-09-04 19:00:00,
2013-09-04 15:05:00,83.6,66.8,29.92,East,96,0.0,2.0,57,0.00,,CLR,0.01,649.00,VWS V14.01,2013-09-04 19:05:00,
2013-09-04 15:10:00,83.6,66.3,29.92,East,96,0.0,4.0,56,0.00,,CLR,0.01,840.00,VWS V14.01,2013-09-04 19:10:00,
2013-09-04 15:15:00,83.6,67.8,29.92,East,96,1.0,4.0,59,0.00,,CLR,0.01,779.00,VWS V14.01,2013-09-04 19:15:00,
2013-09-04 15:20:00,83.6,66.8,29.92,East,96,0.0,4.0,57,0.00,,CLR,0.01,882.00,VWS V14.01,2013-09-04 19:20:00,
2013-09-04 15:25:00,84.0,66.6,29.92,East,95,2.0,4.0,56,0.00,,CLR,0.01,838.00,VWS V14.01,2013-09-04 19:25:00,
2013-09-04 15:30:00,84.0,68.1,29.92,ENE,76,1.0,4.0,59,0.00,,CLR,0.01,765.00,VWS V14.01,2013-09-04 19:30:00,
2013-09-04 15:35:00,84.0,68.6,29.92,East,82,1.0,3.0,60,0.00,,CLR,0.01,629.00,VWS V14.01,2013-09-04 19:35:00,
2013-09-04 15:40:00,84.1,67.2,29.92,East,89,0.0,3.0,57,0.00,,CLR,0.01,819.00,VWS V14.01,2013-09-04 19:40:00,
2013-09-04 15:45:00,84.3,67.4,29.91,ESE,113,0.0,5.0,57,0.00,,CLR,0.01,765.00,VWS V14.01,2013-09-04 19:45:00,
2013-09-04 15:50:00,84.1,66.7,29.91,ESE,105,1.0,5.0,56,0.00,,CLR,0.01,735.00,VWS V14.01,2013-09-04 19:50:00,
2013-09-04 15:55:00,83.8,67.0,29.91,East,96,1.0,5.0,57,0.00,,CLR,0.01,714.00,VWS V14.01,2013-09-04 19:55:00,
2013-09-04 16:00:00,83.6,67.3,29.91,East,90,0.0,5.0,58,0.00,,CLR,0.01,705.00,VWS V14.01,2013-09-04 20:00:00,
2013-09-04 16:05:00,83.6,66.8,29.91,East,91,0.0,5.0,57,0.00,,CLR,0.01,703.00,VWS V14.01,2013-09-04 20:05:00,
2013-09-04 16:10:00,83.6,67.3,29.91,East,88,0.0,5.0,58,0.00,,CLR,0.01,666.00,VWS V14.01,2013-09-04 20:10:00,
2013-09-04 16:15:00,83.8,68.0,29.90,East,88,0.0,5.0,59,0.00,,CLR,0.01,677.00,VWS V14.01,2013-09-04 20:15:00,
2013-09-04 16:20:00,84.3,67.4,29.90,East,88,3.0,5.0,57,0.00,,CLR,0.01,657.00,VWS V14.01,2013-09-04 20:20:00,
2013-09-04 16:25:00,84.0,69.6,29.90,East,94,0.0,5.0,62,0.00,,CLR,0.01,624.00,VWS V14.01,2013-09-04 20:25:00,
2013-09-04 16:30:00,84.3,67.9,29.90,SE,125,0.0,5.0,58,0.00,,CLR,0.01,617.00,VWS V14.01,2013-09-04 20:30:00,
2013-09-04 16:35:00,84.5,68.1,29.90,ESE,122,0.0,2.0,58,0.00,,CLR,0.01,596.00,VWS V14.01,2013-09-04 20:35:00,
2013-09-04 16:40:00,84.9,68.5,29.90,WSW,241,0.0,2.0,58,0.00,,CLR,0.01,598.00,VWS V14.01,2013-09-04 20:40:00,
2013-09-04 16:45:00,85.3,69.4,29.90,WSW,242,0.0,2.0,59,0.00,,CLR,0.01,547.00,VWS V14.01,2013-09-04 20:45:00,
2013-09-04 16:50:00,84.9,69.0,29.90,WSW,249,0.0,2.0,59,0.00,,CLR,0.01,568.00,VWS V14.01,2013-09-04 20:50:00,
2013-09-04 16:55:00,84.9,68.0,29.90,West,272,0.0,2.0,57,0.00,,CLR,0.01,550.00,VWS V14.01,2013-09-04 20:55:00,
2013-09-04 17:00:00,85.3,68.3,29.90,SSE,147,0.0,3.0,57,0.00,,CLR,0.01,533.00,VWS V14.01,2013-09-04 21:00:00,
2013-09-04 17:05:00,85.5,68.0,29.90,SE,127,0.0,1.0,56,0.00,,CLR,0.01,519.00,VWS V14.01,2013-09-04 21:05:00,
2013-09-04 17:10:00,85.5,69.6,29.90,SE,126,0.0,3.0,59,0.00,,CLR,0.01,504.00,VWS V14.01,2013-09-04 21:10:00,
2013-09-04 17:15:00,85.9,68.9,29.90,ESE,123,1.0,3.0,57,0.00,,CLR,0.01,487.00,VWS V14.01,2013-09-04 21:15:00,
2013-09-04 17:20:00,86.3,68.2,29.89,South,178,0.0,3.0,55,0.00,,CLR,0.01,475.00,VWS V14.01,2013-09-04 21:20:00,
2013-09-04 17:25:00,86.5,70.5,29.89,WSW,257,0.0,3.0,59,0.00,,CLR,0.01,457.00,VWS V14.01,2013-09-04 21:25:00,
2013-09-04 17:30:00,85.5,69.1,29.89,West,272,1.0,4.0,58,0.00,,CLR,0.01,436.00,VWS V14.01,2013-09-04 21:30:00,
2013-09-04 17:35:00,85.1,67.7,29.89,WNW,286,0.0,0.0,56,0.00,,CLR,0.01,418.00,VWS V14.01,2013-09-04 21:35:00,
2013-09-04 17:40:00,85.7,67.7,29.89,WNW,286,0.0,1.0,55,0.00,,CLR,0.01,403.00,VWS V14.01,2013-09-04 21:40:00,
2013-09-04 17:45:00,86.3,67.7,29.89,WNW,291,0.0,1.0,54,0.00,,CLR,0.01,388.00,VWS V14.01,2013-09-04 21:45:00,
2013-09-04 17:50:00,86.7,70.2,29.89,NW,309,0.0,1.0,58,0.00,,CLR,0.01,371.00,VWS V14.01,2013-09-04 21:50:00,
2013-09-04 17:55:00,86.7,68.1,29.89,NW,308,0.0,1.0,54,0.00,,CLR,0.01,353.00,VWS V14.01,2013-09-04 21:55:00,
2013-09-04 18:00:00,87.0,69.9,29.89,NW,308,0.0,1.0,57,0.00,,CLR,0.01,334.00,VWS V14.01,2013-09-04 22:00:00,
2013-09-04 18:05:00,87.6,68.4,29.89,NW,308,0.0,0.0,53,0.00,,CLR,0.01,318.00,VWS V14.01,2013-09-04 22:05:00,
2013-09-04 18:10:00,87.6,68.4,29.89,NW,308,0.0,1.0,53,0.00,,CLR,0.01,302.00,VWS V14.01,2013-09-04 22:10:00,
2013-09-04 18:15:00,87.6,69.4,29.89,NW,308,0.0,1.0,55,0.00,,CLR,0.01,287.00,VWS V14.01,2013-09-04 22:15:00,
2013-09-04 18:20:00,87.6,68.4,29.88,NW,311,0.0,1.0,53,0.00,,CLR,0.01,267.00,VWS V14.01,2013-09-04 22:20:00,
2013-09-04 18:25:00,87.8,68.6,29.88,NNW,337,0.0,1.0,53,0.00,,CLR,0.01,250.00,VWS V14.01,2013-09-04 22:25:00,
2013-09-04 18:30:00,87.4,70.8,29.88,NNW,336,0.0,2.0,58,0.00,,CLR,0.01,234.00,VWS V14.01,2013-09-04 22:30:00,
2013-09-04 18:35:00,85.7,70.2,29.88,NW,315,0.0,6.0,60,0.00,,CLR,0.01,220.00,VWS V14.01,2013-09-04 22:35:00,
2013-09-04 18:40:00,84.7,72.1,29.88,NW,315,0.0,6.0,66,0.00,,CLR,0.01,202.00,VWS V14.01,2013-09-04 22:40:00,
2013-09-04 18:45:00,84.3,71.7,29.88,NW,318,0.0,6.0,66,0.00,,CLR,0.01,188.00,VWS V14.01,2013-09-04 22:45:00,
2013-09-04 18:49:00,84.5,73.2,29.89,NW,324,0.0,6.0,69,0.00,,CLR,0.01,174.00,VWS V14.01,2013-09-04 22:49:00,
2013-09-04 18:54:00,83.8,73.0,29.89,NW,309,4.0,6.0,70,0.00,,CLR,0.01,156.00,VWS V14.01,2013-09-04 22:54:00,
2013-09-04 18:59:00,83.0,73.5,29.89,NW,305,3.0,6.0,73,0.00,,CLR,0.01,142.00,VWS V14.01,2013-09-04 22:59:00,
2013-09-04 19:00:00,87.2,69.6,29.89,NW,308,0.0,1.0,56,0.00,,CLR,0.01,330.00,VWS V14.01,2013-09-04 23:00:00,
2013-09-04 19:04:00,82.2,73.1,29.89,NW,304,0.0,2.0,74,0.00,,CLR,0.01,121.00,VWS V14.01,2013-09-04 23:04:00,
2013-09-04 19:09:00,81.6,72.9,29.89,NW,305,0.0,3.0,75,0.00,,CLR,0.01,104.00,VWS V14.01,2013-09-04 23:09:00,
2013-09-04 19:14:00,81.2,73.3,29.89,NW,305,0.0,4.0,77,0.00,,CLR,0.01,83.00,VWS V14.01,2013-09-04 23:14:00,
2013-09-04 19:19:00,80.9,72.6,29.89,NW,305,0.0,4.0,76,0.00,,CLR,0.01,69.00,VWS V14.01,2013-09-04 23:19:00,
2013-09-04 19:24:00,80.7,73.6,29.89,WNW,303,0.0,4.0,79,0.00,,CLR,0.01,40.00,VWS V14.01,2013-09-04 23:24:00,
2013-09-04 19:29:00,80.5,72.6,29.89,WNW,302,0.0,4.0,77,0.00,,CLR,0.01,33.00,VWS V14.01,2013-09-04 23:29:00,
2013-09-04 19:30:00,87.2,72.1,29.88,NNW,336,0.0,5.0,61,0.00,,CLR,0.01,234.00,VWS V14.01,2013-09-04 23:30:00,
2013-09-04 19:34:00,80.1,73.0,29.89,WNW,302,0.0,2.0,79,0.00,,CLR,0.01,18.00,VWS V14.01,2013-09-04 23:34:00,
2013-09-04 19:39:00,79.8,72.3,29.89,WNW,302,0.0,2.0,78,0.00,,CLR,0.01,11.00,VWS V14.01,2013-09-04 23:39:00,
2013-09-04 19:44:00,79.2,71.4,29.89,WNW,302,0.0,2.0,77,0.00,,CLR,0.01,5.00,VWS V14.01,2013-09-04 23:44:00,
2013-09-04 19:49:00,79.0,71.6,29.90,NW,308,0.0,2.0,78,0.00,,CLR,0.01,0.00,VWS V14.01,2013-09-04 23:49:00,
2013-09-04 19:54:00,78.8,71.7,29.90,NW,323,0.0,2.0,79,0.00,,CLR,0.01,0.00,VWS V14.01,2013-09-04 23:54:00,
2013-09-04 19:59:00,78.6,71.9,29.90,NW,325,0.0,2.0,80,0.00,,CLR,0.01,0.00,VWS V14.01,2013-09-04 23:59:00,
2013-09-04 20:00:00,82.8,74.1,29.89,NW,304,2.0,6.0,75,0.00,,CLR,0.01,139.00,VWS V14.01,2013-09-05 00:00:00,
2013-09-04 20:04:00,78.6,72.3,29.90,North,360,0.0,1.0,81,0.00,,CLR,0.01,0.00,VWS V14.01,2013-09-05 00:04:00,
2013-09-04 20:09:00,78.3,71.6,29.90,NNW,338,0.0,1.0,80,0.00,,CLR,0.01,0.00,VWS V14.01,2013-09-05 00:09:00,
2013-09-04 20:14:00,78.1,70.7,29.90,NNW,339,0.0,1.0,78,0.00,,CLR,0.01,0.00,VWS V14.01,2013-09-05 00:14:00,
2013-09-04 20:19:00,77.9,70.9,29.90,NNW,348,0.0,1.0,79,0.00,,CLR,0.01,0.00,VWS V14.01,2013-09-05 00:19:00,
2013-09-04 20:24:00,77.7,70.3,29.90,NNW,348,0.0,1.0,78,0.00,,CLR,0.01,0.00,VWS V14.01,2013-09-05 00:24:00,
2013-09-04 20:29:00,77.6,70.2,29.90,NNW,348,0.0,1.0,78,0.00,,CLR,0.01,0.00,VWS V14.01,2013-09-05 00:29:00,
2013-09-04 20:30:00,80.3,72.8,29.89,WNW,302,0.0,4.0,78,0.00,,CLR,0.01,23.00,VWS V14.01,2013-09-05 00:30:00,
2013-09-04 20:34:00,77.6,70.6,29.90,NNW,348,0.0,0.0,79,0.00,,CLR,0.01,0.00,VWS V14.01,2013-09-05 00:34:00,
2013-09-04 20:39:00,77.7,71.8,29.90,NNW,347,0.0,0.0,82,0.00,,CLR,0.01,0.00,VWS V14.01,2013-09-05 00:39:00,
2013-09-04 20:44:00,77.6,72.4,29.90,North,5,0.0,0.0,84,0.00,,CLR,0.01,0.00,VWS V14.01,2013-09-05 00:44:00,
2013-09-04 20:49:00,77.6,72.0,29.91,North,11,0.0,1.0,83,0.00,,CLR,0.01,0.00,VWS V14.01,2013-09-05 00:49:00,
2013-09-04 20:54:00,77.4,72.5,29.91,North,5,0.0,1.0,85,0.00,,CLR,0.01,0.00,VWS V14.01,2013-09-05 00:54:00,
2013-09-04 20:59:00,77.4,72.5,29.91,NNW,346,0.0,1.0,85,0.00,,CLR,0.01,0.00,VWS V14.01,2013-09-05 00:59:00,
2013-09-04 21:00:00,78.6,72.3,29.90,NW,323,0.0,2.0,81,0.00,,CLR,0.01,0.00,VWS V14.01,2013-09-05 01:00:00,
2013-09-04 21:04:00,77.2,72.7,29.92,NNW,346,0.0,0.0,86,0.00,,CLR,0.01,0.00,VWS V14.01,2013-09-05 01:04:00,
2013-09-04 21:09:00,77.2,72.7,29.92,NNW,346,0.0,0.0,86,0.00,,CLR,0.01,0.00,VWS V14.01,2013-09-05 01:09:00,
2013-09-04 21:14:00,77.0,71.8,29.92,NNW,346,0.0,0.0,84,0.00,,CLR,0.01,0.00,VWS V14.01,2013-09-05 01:14:00,
2013-09-04 21:19:00,76.8,71.6,29.93,NNW,346,0.0,0.0,84,0.00,,CLR,0.01,0.00,VWS V14.01,2013-09-05 01:19:00,
2013-09-04 21:24:00,76.8,71.9,29.93,NNW,346,0.0,0.0,85,0.00,,CLR,0.01,0.00,VWS V14.01,2013-09-05 01:24:00,
2013-09-04 21:29:00,77.0,72.8,29.93,NNW,346,0.0,0.0,87,0.00,,CLR,0.01,0.00,VWS V14.01,2013-09-05 01:29:00,
2013-09-04 21:30:00,77.6,70.2,29.90,NNW,348,0.0,1.0,78,0.00,,CLR,0.01,0.00,VWS V14.01,2013-09-05 01:30:00,
2013-09-04 21:34:00,77.0,72.8,29.93,NNW,346,0.0,1.0,87,0.00,,CLR,0.01,0.00,VWS V14.01,2013-09-05 01:34:00,
2013-09-04 21:39:00,77.2,73.7,29.93,NNW,345,3.0,6.0,89,0.00,,CLR,0.01,0.00,VWS V14.01,2013-09-05 01:39:00,
2013-09-04 21:44:00,77.4,72.9,29.93,NNW,345,1.0,6.0,86,0.00,,CLR,0.01,0.00,VWS V14.01,2013-09-05 01:44:00,
2013-09-04 21:49:00,77.4,72.5,29.94,NNW,345,4.0,6.0,85,0.00,,CLR,0.01,0.00,VWS V14.01,2013-09-05 01:49:00,
2013-09-04 21:54:00,77.6,72.7,29.94,NNW,345,3.0,6.0,85,0.00,,CLR,0.01,0.00,VWS V14.01,2013-09-05 01:54:00,
2013-09-04 21:59:00,77.6,73.1,29.94,NNW,345,0.0,6.0,86,0.00,,CLR,0.01,0.00,VWS V14.01,2013-09-05 01:59:00,
2013-09-04 22:00:00,77.4,72.9,29.92,NNW,346,0.0,1.0,86,0.00,,CLR,0.01,0.00,VWS V14.01,2013-09-05 02:00:00,
2013-09-04 22:04:00,77.4,73.2,29.95,NNW,345,4.0,5.0,87,0.00,,BKN060,0.01,0.00,VWS V14.01,2013-09-05 02:04:00,
2013-09-04 22:09:00,77.4,72.2,29.95,NNW,345,1.0,5.0,84,0.00,,BKN060,0.01,0.00,VWS V14.01,2013-09-05 02:09:00,
2013-09-04 22:14:00,77.2,72.0,29.95,NNW,345,0.0,5.0,84,0.00,,BKN060,0.01,0.00,VWS V14.01,2013-09-05 02:14:00,
2013-09-04 22:19:00,77.2,72.0,29.95,NNW,345,3.0,5.0,84,0.00,,BKN060,0.01,0.00,VWS V14.01,2013-09-05 02:19:00,
2013-09-04 22:24:00,77.2,72.0,29.95,NNW,345,4.0,5.0,84,0.00,,BKN060,0.01,0.00,VWS V14.01,2013-09-05 02:24:00,
2013-09-04 22:29:00,77.0,71.8,29.95,NNW,345,0.0,5.0,84,0.00,,BKN060,0.01,0.00,VWS V14.01,2013-09-05 02:29:00,
2013-09-04 22:30:00,77.0,72.8,29.93,NNW,346,0.0,0.0,87,0.00,,CLR,0.01,0.00,VWS V14.01,2013-09-05 02:30:00,
2013-09-04 22:34:00,77.0,72.8,29.95,NNW,340,3.0,4.0,87,0.00,,BKN060,0.01,0.00,VWS V14.01,2013-09-05 02:34:00,
2013-09-04 22:39:00,77.0,72.8,29.95,NNW,340,0.0,4.0,87,0.00,,BKN060,0.01,0.00,VWS V14.01,2013-09-05 02:39:00,
2013-09-04 22:44:00,76.7,72.2,29.95,NNW,340,0.0,4.0,86,0.00,,BKN060,0.01,0.00,VWS V14.01,2013-09-05 02:44:00,
2013-09-04 22:49:00,76.3,72.2,29.95,NNW,340,0.0,4.0,87,0.00,,BKN060,0.01,0.00,VWS V14.01,2013-09-05 02:49:00,
2013-09-04 22:54:00,76.1,72.3,29.95,NNW,340,0.0,4.0,88,0.00,,BKN060,0.01,0.00,VWS V14.01,2013-09-05 02:54:00,
2013-09-04 22:59:00,76.1,71.9,29.95,NNW,340,0.0,5.0,87,0.00,,BKN060,0.01,0.00,VWS V14.01,2013-09-05 02:59:00,
2013-09-04 23:00:00,77.6,73.4,29.95,NNW,345,0.0,6.0,87,0.00,,CLR,0.01,0.00,VWS V14.01,2013-09-05 03:00:00,
2013-09-04 23:04:00,76.1,71.9,29.95,West,280,3.0,6.0,87,0.00,,CLR,0.00,0.00,VWS V14.01,2013-09-05 03:04:00,
2013-09-04 23:09:00,76.1,71.9,29.95,WNW,297,2.0,6.0,87,0.00,,CLR,0.00,0.00,VWS V14.01,2013-09-05 03:09:00,
2013-09-04 23:14:00,76.1,71.3,29.95,WNW,297,5.0,6.0,85,0.00,,CLR,0.00,0.00,VWS V14.01,2013-09-05 03:14:00,
2013-09-04 23:19:00,76.0,71.5,29.96,WNW,294,0.0,6.0,86,0.00,,CLR,0.00,0.00,VWS V14.01,2013-09-05 03:19:00,
2013-09-04 23:24:00,75.8,71.7,29.96,WNW,294,4.0,6.0,87,0.00,,CLR,0.00,0.00,VWS V14.01,2013-09-05 03:24:00,
2013-09-04 23:29:00,75.8,71.7,29.96,WNW,294,1.0,6.0,87,0.00,,CLR,0.00,0.00,VWS V14.01,2013-09-05 03:29:00,
2013-09-04 23:30:00,77.0,72.2,29.95,NNW,340,1.0,5.0,85,0.00,,CLR,0.01,0.00,VWS V14.01,2013-09-05 03:30:00,
2013-09-04 23:34:00,75.8,71.0,29.96,NW,305,3.0,5.0,85,0.00,,CLR,0.00,0.00,VWS V14.01,2013-09-05 03:34:00,
2013-09-04 23:39:00,75.6,70.8,29.96,WNW,296,4.0,5.0,85,0.00,,CLR,0.00,0.00,VWS V14.01,2013-09-05 03:39:00,
2013-09-04 23:44:00,75.6,71.1,29.96,WNW,296,4.0,5.0,86,0.00,,CLR,0.00,0.00,VWS V14.01,2013-09-05 03:44:00,
2013-09-04 23:49:00,75.6,71.5,29.97,WNW,296,3.0,5.0,87,0.00,,CLR,0.00,0.00,VWS V14.01,2013-09-05 03:49:00,
2013-09-04 23:54:00,75.6,71.5,29.97,WNW,286,2.0,6.0,87,0.00,,CLR,0.00,0.00,VWS V14.01,2013-09-05 03:54:00,
2013-09-04 23:59:00,75.8,72.3,29.97,WNW,290,2.0,6.0,89,0.00,,CLR,0.00,0.00,VWS V14.01,2013-09-05 03:59:00,